Rechercher aéroport 
image banner adimage banner adimage banner ad
image banner ad

CA76 - Flying T Ranch

Situé à Ramona, United States

ICAO - CA76, IATA -

Données fournies par Airmate  

Information générale

Coordonnées: N33°4'13" W116°45'7"
Élévation : 2500 feet MSL.
Variation magnétique : 13° East
Voir autres Aéroports à California

Données opérationnelles

Special qualification required
Heure actuelle UTC:
Heure actuelle locale:
Météo à : KRNM - Ramona ( 16 km )
METAR: KRNM 020553Z AUTO 00000KT 10SM CLR 19/06 A3007 RMK AO2 SLP163 T01940061 10328 20189 51009
Voir NOTAMs / SUP AIP / TFR affectant cet aéroport [VIEW]
Fréquences de communication: [VIEW]

Pistes:

Identifiant RWYQFULongueur (ft)Largeur (ft)SurfaceLDA (ft)
03200075OTHER
21200075OTHER

Coordonnées de l'aéroport

Adresse: Ramona United States

Vue satellite de CA76